Time;durP1;ratioP1;P1;durP2;ratioP2;P2;SDS_P1;SDS_P2;PMS_P1;PMS_P2;Temp;Humidity;BMP_temperature;BMP_pressure;BME280_temperature;BME280_humidity;BME280_pressure;Samples;Min_cycle;Max_cycle;Signal;HPM_P1;HPM_P2
2021/10/27 00:01:14;;;;;;;2.30;2.10;;;;;;;12.21;76.75;101501.03;5043659;28;20280;-79
2021/10/27 00:03:40;;;;;;;3.00;1.83;;;;;;;12.24;76.86;101487.03;5043129;28;20512;-80
2021/10/27 00:06:08;;;;;;;3.67;2.03;;;;;;;12.23;77.03;101488.78;5043270;28;20582;-80
2021/10/27 00:08:35;;;;;;;4.13;2.07;;;;;;;12.19;77.37;101481.84;5043920;28;20301;-79
2021/10/27 00:11:01;;;;;;;4.83;2.13;;;;;;;12.15;77.27;101485.38;5044156;28;20202;-79
2021/10/27 00:13:27;;;;;;;2.80;1.60;;;;;;;11.98;78.00;101476.78;5043240;28;20721;-79
2021/10/27 00:15:54;;;;;;;3.47;2.30;;;;;;;11.98;77.87;101443.63;5043180;28;20283;-80
2021/10/27 00:18:20;;;;;;;4.93;2.43;;;;;;;12.07;78.08;101440.06;5044511;28;20749;-80
2021/10/27 00:20:47;;;;;;;2.40;1.70;;;;;;;12.14;77.98;101439.13;5047186;28;20205;-79
2021/10/27 00:23:14;;;;;;;4.13;2.07;;;;;;;12.17;77.63;101452.19;5046258;28;20292;-81
2021/10/27 00:25:41;;;;;;;2.53;2.17;;;;;;;12.24;77.79;101466.94;5046761;28;20249;-80
2021/10/27 00:28:07;;;;;;;5.53;2.47;;;;;;;12.26;77.76;101459.94;5046739;28;20205;-80
2021/10/27 00:30:33;;;;;;;2.17;1.60;;;;;;;12.21;78.10;101447.78;5046683;28;20825;-80
2021/10/27 00:33:00;;;;;;;4.43;2.20;;;;;;;12.26;77.82;101440.75;5046917;28;20229;-80
2021/10/27 00:35:27;;;;;;;4.53;2.33;;;;;;;12.26;78.26;101446.00;5046741;28;20221;-79
2021/10/27 00:37:53;;;;;;;3.63;2.27;;;;;;;12.30;77.62;101456.41;5046809;28;20680;-80
2021/10/27 00:40:21;;;;;;;3.80;2.00;;;;;;;12.28;78.12;101445.09;5046018;28;20271;-78
2021/10/27 00:42:47;;;;;;;2.47;2.00;;;;;;;12.33;77.98;101450.31;5046309;28;21103;-79
2021/10/27 00:45:14;;;;;;;4.20;2.30;;;;;;;12.30;77.75;101458.16;5046940;28;20644;-80
2021/10/27 00:47:40;;;;;;;3.20;2.00;;;;;;;12.25;77.93;101455.63;5046654;28;20263;-79
2021/10/27 00:50:07;;;;;;;4.97;2.20;;;;;;;12.22;78.23;101429.44;5046644;28;20225;-79
2021/10/27 00:52:34;;;;;;;3.03;2.50;;;;;;;12.24;78.54;101427.69;5046943;28;20344;-80
2021/10/27 00:55:00;;;;;;;3.33;2.40;;;;;;;12.24;78.54;101426.81;5046758;28;20213;-80
2021/10/27 00:57:28;;;;;;;2.67;2.47;;;;;;;12.17;78.38;101423.41;5046733;28;20417;-80
2021/10/27 00:59:56;;;;;;;3.23;2.40;;;;;;;12.20;78.74;101414.66;5046781;28;20214;-79
2021/10/27 01:02:23;;;;;;;4.80;2.70;;;;;;;12.21;78.76;101401.56;5047895;28;20203;-79
2021/10/27 01:04:50;;;;;;;5.50;2.80;;;;;;;12.18;79.12;101404.19;5047536;28;20727;-80
2021/10/27 01:07:17;;;;;;;7.43;2.93;;;;;;;12.20;78.92;101412.88;5047013;28;20229;-79
2021/10/27 01:09:43;;;;;;;6.50;2.50;;;;;;;12.23;78.52;101412.88;5046675;28;20295;-80
2021/10/27 01:12:10;;;;;;;5.47;2.90;;;;;;;12.22;78.57;101424.22;5046567;28;20229;-80
2021/10/27 01:14:40;;;;;;;6.70;3.30;;;;;;;12.20;78.88;101425.13;5047502;28;20206;-82
2021/10/27 01:17:08;;;;;;;4.53;2.97;;;;;;;12.21;79.20;101419.88;5046305;28;20210;-80
2021/10/27 01:19:44;;;;;;;3.27;2.50;;;;;;;12.21;79.60;101400.66;5046922;28;20206;-79
2021/10/27 01:22:11;;;;;;;3.80;3.20;;;;;;;12.24;79.18;101388.41;5047233;28;20197;-81
2021/10/27 01:24:37;;;;;;;5.63;3.20;;;;;;;12.27;79.05;101398.88;5046860;28;20222;-80
2021/10/27 01:27:04;;;;;;;3.00;2.80;;;;;;;12.30;79.67;101398.81;5046981;28;20206;-78
2021/10/27 01:29:30;;;;;;;3.40;2.70;;;;;;;12.17;79.52;101392.00;5046541;28;20308;-80
2021/10/27 01:31:57;;;;;;;3.97;3.03;;;;;;;12.18;79.62;101383.25;5046687;28;20626;-80
2021/10/27 01:34:23;;;;;;;3.57;3.00;;;;;;;12.22;80.17;101373.63;5046915;28;20222;-79
2021/10/27 01:36:51;;;;;;;4.13;3.30;;;;;;;12.15;80.09;101364.97;5046880;28;20251;-79
2021/10/27 01:39:17;;;;;;;3.27;3.00;;;;;;;12.13;80.15;101371.97;5046275;28;20213;-79
2021/10/27 01:41:44;;;;;;;3.93;2.80;;;;;;;12.17;80.50;101363.22;5046801;28;20211;-79
2021/10/27 01:44:11;;;;;;;4.63;3.00;;;;;;;12.20;80.34;101359.69;5046875;28;20237;-80
2021/10/27 01:46:39;;;;;;;4.97;3.43;;;;;;;12.20;80.49;101354.44;5046379;28;20209;-80
2021/10/27 01:49:07;;;;;;;4.53;3.30;;;;;;;12.26;80.38;101364.84;5046034;28;20201;-79
2021/10/27 01:51:34;;;;;;;4.00;3.47;;;;;;;12.16;80.91;101348.38;5046089;28;20209;-80
2021/10/27 01:54:02;;;;;;;3.70;3.33;;;;;;;12.19;80.85;101348.34;5045197;28;20408;-79
2021/10/27 01:56:29;;;;;;;4.93;3.47;;;;;;;12.22;81.23;101347.44;5045761;28;20685;-81
2021/10/27 01:58:56;;;;;;;4.53;3.63;;;;;;;12.26;80.81;101339.53;5045735;28;20669;-80
2021/10/27 02:01:23;;;;;;;4.47;3.50;;;;;;;12.18;81.38;101324.81;5046332;28;20633;-80
2021/10/27 02:03:49;;;;;;;3.93;3.63;;;;;;;12.20;81.46;101307.34;5045824;28;20286;-79
2021/10/27 02:06:16;;;;;;;8.43;3.80;;;;;;;12.22;81.96;101298.56;5046603;28;20964;-79
2021/10/27 02:08:43;;;;;;;4.93;3.63;;;;;;;12.14;82.42;101279.47;5046446;28;20263;-80
2021/10/27 02:11:11;;;;;;;7.07;4.93;;;;;;;12.15;82.84;101268.13;5046093;28;20210;-80
2021/10/27 02:13:37;;;;;;;7.13;4.10;;;;;;;12.19;82.62;101268.94;5045966;28;20283;-80
2021/10/27 02:16:04;;;;;;;5.40;4.90;;;;;;;12.15;83.28;101249.81;5045317;28;20210;-80
2021/10/27 02:18:31;;;;;;;6.90;5.60;;;;;;;12.19;83.32;101243.66;5045956;28;20263;-79
2021/10/27 02:20:57;;;;;;;5.10;4.70;;;;;;;12.22;83.32;101240.13;5046624;28;20236;-81
2021/10/27 02:23:24;;;;;;;6.27;5.63;;;;;;;12.22;83.68;101237.50;5045963;28;20659;-81
2021/10/27 02:25:50;;;;;;;6.30;5.70;;;;;;;12.22;83.76;101233.13;5048748;28;20267;-79
2021/10/27 02:28:18;;;;;;;6.30;5.57;;;;;;;12.16;84.21;101220.13;5050214;28;20213;-80
2021/10/27 02:30:44;;;;;;;7.87;5.50;;;;;;;12.21;84.47;101210.47;5050069;28;20670;-80
2021/10/27 02:33:11;;;;;;;6.07;5.40;;;;;;;12.23;84.46;101213.94;5050486;28;20227;-79
2021/10/27 02:35:37;;;;;;;5.87;5.37;;;;;;;12.25;84.68;101213.88;5045395;28;20259;-79
2021/10/27 02:38:03;;;;;;;6.63;6.03;;;;;;;12.26;84.42;101211.25;5044681;28;20228;-77
2021/10/27 02:40:30;;;;;;;7.10;6.40;;;;;;;12.23;84.88;101202.56;5044493;28;20236;-79
2021/10/27 02:42:56;;;;;;;6.27;5.77;;;;;;;12.21;84.70;101206.97;5044841;28;20263;-79
2021/10/27 02:45:24;;;;;;;6.80;6.17;;;;;;;12.20;85.00;101207.88;5044772;28;20226;-80
2021/10/27 02:47:50;;;;;;;6.53;6.03;;;;;;;12.18;85.15;101196.56;5043930;28;20225;-80
2021/10/27 02:50:17;;;;;;;6.83;6.23;;;;;;;12.19;85.24;101204.38;5044525;28;20210;-80
2021/10/27 02:52:45;;;;;;;7.17;6.53;;;;;;;12.20;85.02;101203.50;5044939;28;20251;-79
2021/10/27 02:55:12;;;;;;;7.67;6.70;;;;;;;12.22;85.41;101201.72;5044893;28;20198;-79
2021/10/27 02:57:39;;;;;;;6.40;5.90;;;;;;;12.18;85.34;101186.94;5044510;28;20206;-79
2021/10/27 03:00:07;;;;;;;6.60;6.10;;;;;;;12.25;85.19;101198.19;5044402;28;20205;-80
2021/10/27 03:02:37;;;;;;;6.93;5.70;;;;;;;12.26;85.23;101195.56;5044278;28;20238;-79
2021/10/27 03:05:04;;;;;;;6.57;5.93;;;;;;;12.27;85.37;101202.53;5044064;28;20221;-79
2021/10/27 03:07:30;;;;;;;6.90;6.30;;;;;;;12.28;85.68;101193.78;5043663;28;20210;-79
2021/10/27 03:09:56;;;;;;;8.10;7.30;;;;;;;12.17;86.30;101179.09;5043996;28;20218;-79
2021/10/27 03:12:23;;;;;;;8.00;7.20;;;;;;;12.04;86.68;101163.56;5045620;28;20213;-79
2021/10/27 03:14:49;;;;;;;8.23;7.07;;;;;;;12.15;86.50;101166.06;5045649;28;20267;-79
2021/10/27 03:17:17;;;;;;;7.20;6.57;;;;;;;12.18;86.80;101168.63;5044636;28;20197;-80
2021/10/27 03:19:45;;;;;;;6.80;6.30;;;;;;;12.21;86.55;101171.22;5045024;28;20213;-80
2021/10/27 03:22:12;;;;;;;7.53;6.80;;;;;;;12.28;85.93;101178.06;5044811;28;20217;-79
2021/10/27 03:24:38;;;;;;;8.77;6.53;;;;;;;12.30;85.87;101178.06;5045066;28;20569;-80
2021/10/27 03:27:05;;;;;;;7.73;6.20;;;;;;;12.35;85.63;101191.06;5044527;28;21002;-79
2021/10/27 03:29:31;;;;;;;7.77;6.83;;;;;;;12.40;85.57;101197.97;5044712;28;20259;-79
2021/10/27 03:31:58;;;;;;;8.20;6.47;;;;;;;12.35;85.71;101198.91;5044892;28;20206;-79
2021/10/27 03:34:24;;;;;;;7.10;6.50;;;;;;;12.24;85.88;101180.75;5044862;28;20730;-80
2021/10/27 03:36:53;;;;;;;6.73;6.13;;;;;;;12.32;86.11;101185.00;5045386;28;20218;-80
2021/10/27 03:39:19;;;;;;;6.73;6.00;;;;;;;12.38;85.95;101194.50;5044707;28;20292;-80
2021/10/27 03:41:46;;;;;;;6.80;5.50;;;;;;;12.43;85.33;101199.72;5045083;28;20202;-80
2021/10/27 03:44:12;;;;;;;6.73;5.37;;;;;;;12.45;85.20;101203.16;5044632;28;20238;-79
2021/10/27 03:46:39;;;;;;;5.80;5.40;;;;;;;12.41;85.63;101197.09;5044704;28;20202;-79
2021/10/27 03:49:05;;;;;;;6.67;6.07;;;;;;;12.32;86.18;101182.38;5044318;28;20245;-79
2021/10/27 03:51:32;;;;;;;5.70;5.00;;;;;;;12.40;85.49;101202.34;5044534;28;20271;-81
2021/10/27 03:54:00;;;;;;;5.87;5.27;;;;;;;12.35;85.52;101215.53;5047204;28;20234;-80
2021/10/27 03:56:26;;;;;;;4.90;4.50;;;;;;;12.30;85.71;101202.47;5048785;28;20206;-79
2021/10/27 03:58:52;;;;;;;5.63;5.07;;;;;;;12.28;85.92;101208.63;5048136;28;20209;-80
2021/10/27 04:01:19;;;;;;;5.30;4.80;;;;;;;12.28;85.79;101208.63;5048458;28;20233;-80
2021/10/27 04:03:45;;;;;;;7.30;5.10;;;;;;;12.23;86.35;101197.34;5048480;28;20320;-79
2021/10/27 04:06:12;;;;;;;6.70;4.47;;;;;;;12.29;86.31;101192.03;5047854;28;20221;-79
2021/10/27 04:08:38;;;;;;;5.07;4.57;;;;;;;12.10;86.79;101200.13;5047984;28;20214;-81
2021/10/27 04:11:06;;;;;;;5.33;4.83;;;;;;;12.11;86.43;101191.41;5047778;28;20242;-80
2021/10/27 04:13:33;;;;;;;5.03;4.63;;;;;;;12.19;86.37;101183.44;5048474;28;20303;-79
2021/10/27 04:15:59;;;;;;;5.87;4.83;;;;;;;12.22;86.31;101203.47;5048022;28;20207;-79
2021/10/27 04:18:26;;;;;;;4.43;4.00;;;;;;;12.22;86.06;101211.34;5048357;28;20644;-80
2021/10/27 04:20:52;;;;;;;4.17;3.87;;;;;;;12.21;86.23;101210.47;5048717;28;20228;-81
2021/10/27 04:23:19;;;;;;;7.10;4.50;;;;;;;12.26;85.92;101211.25;5047879;28;20237;-78
2021/10/27 04:25:46;;;;;;;4.47;4.00;;;;;;;12.25;85.94;101220.00;5047736;28;20231;-79
2021/10/27 04:28:14;;;;;;;4.90;4.27;;;;;;;12.27;85.95;101220.00;5047751;28;20256;-80
2021/10/27 04:30:40;;;;;;;4.37;3.97;;;;;;;12.18;85.90;101226.19;5048126;28;20693;-79
2021/10/27 04:33:15;;;;;;;3.63;3.33;;;;;;;12.24;85.60;101220.03;5048218;28;20668;-79
2021/10/27 04:35:41;;;;;;;4.33;3.93;;;;;;;12.24;85.60;101215.66;5047787;28;20201;-80
2021/10/27 04:38:08;;;;;;;5.23;4.73;;;;;;;12.24;86.12;101217.41;5047794;28;20218;-80
2021/10/27 04:40:34;;;;;;;5.13;4.60;;;;;;;12.26;85.76;101215.63;5048042;28;20205;-79
2021/10/27 04:43:00;;;;;;;4.47;4.00;;;;;;;12.31;85.77;101222.53;5048041;28;20647;-80
2021/10/27 04:45:30;;;;;;;4.67;3.80;;;;;;;12.29;85.74;101236.56;5047139;28;20592;-78
2021/10/27 04:47:56;;;;;;;3.50;3.20;;;;;;;12.32;85.39;101234.72;5047958;28;20225;-79
2021/10/27 04:50:23;;;;;;;6.80;4.33;;;;;;;12.31;85.52;101230.41;5047939;28;20203;-80
2021/10/27 04:52:49;;;;;;;4.03;3.60;;;;;;;12.14;86.17;101223.66;5047751;28;20243;-80
2021/10/27 04:55:15;;;;;;;4.47;3.70;;;;;;;12.20;85.88;101213.97;5047221;28;20209;-78
2021/10/27 04:57:42;;;;;;;5.13;3.93;;;;;;;12.19;86.10;101221.81;5047518;28;20835;-81
2021/10/27 05:00:09;;;;;;;4.13;3.73;;;;;;;12.21;86.31;101212.19;5047469;28;20232;-81
2021/10/27 05:02:37;;;;;;;8.13;3.57;;;;;;;12.24;86.11;101217.41;5047213;28;20228;-79
2021/10/27 05:05:04;;;;;;;5.90;3.60;;;;;;;12.30;85.90;101230.41;5046801;28;20306;-79
2021/10/27 05:07:30;;;;;;;3.33;2.93;;;;;;;12.31;85.47;101234.78;5046483;28;20614;-81
2021/10/27 05:09:57;;;;;;;3.93;3.20;;;;;;;12.35;85.41;101243.44;5046482;28;20210;-80
2021/10/27 05:12:23;;;;;;;4.07;3.73;;;;;;;12.30;85.19;101236.50;5047542;28;20207;-80
2021/10/27 05:14:51;;;;;;;4.07;3.70;;;;;;;12.28;85.13;101253.13;5046856;28;20205;-80
2021/10/27 05:17:18;;;;;;;6.27;3.73;;;;;;;12.28;85.37;101232.19;5046874;28;20348;-80
2021/10/27 05:19:46;;;;;;;3.70;3.40;;;;;;;12.29;85.43;101241.78;5047351;28;20263;-79
2021/10/27 05:22:16;;;;;;;4.80;3.30;;;;;;;12.23;85.59;101237.50;5046209;28;20207;-80
2021/10/27 05:24:44;;;;;;;4.17;3.27;;;;;;;12.32;85.59;101236.50;5046375;28;20361;-79
2021/10/27 05:27:10;;;;;;;6.03;3.60;;;;;;;12.29;84.82;101242.66;5047024;28;20209;-79
2021/10/27 05:29:37;;;;;;;3.43;3.03;;;;;;;12.31;85.14;101237.41;5047104;28;20786;-81
2021/10/27 05:32:06;;;;;;;5.63;3.47;;;;;;;12.31;85.16;101232.16;5047094;28;20210;-79
2021/10/27 05:34:32;;;;;;;4.37;3.20;;;;;;;12.29;84.98;101236.56;5045039;28;20244;-77
2021/10/27 05:37:00;;;;;;;4.33;3.93;;;;;;;12.19;85.73;101221.81;5044546;28;20684;-77
2021/10/27 05:39:26;;;;;;;7.77;3.67;;;;;;;12.15;85.56;101207.94;5044326;28;20209;-77
2021/10/27 05:41:53;;;;;;;5.13;4.30;;;;;;;12.15;85.91;101207.94;5044688;28;20206;-76
2021/10/27 05:44:20;;;;;;;5.67;3.80;;;;;;;12.10;85.83;101207.13;5044889;28;20226;-79
2021/10/27 05:46:49;;;;;;;4.67;3.93;;;;;;;12.15;86.16;101204.44;5043907;28;20230;-79
2021/10/27 05:49:21;;;;;;;3.90;3.60;;;;;;;12.12;86.72;101202.72;5043913;28;20202;-79
2021/10/27 05:51:50;;;;;;;4.10;3.67;;;;;;;12.08;86.89;101196.66;5044358;28;20881;-80
2021/10/27 05:57:03;;;;;;;9.07;4.27;;;;;;;12.10;86.95;101194.03;5044597;28;20208;-80
2021/10/27 05:59:29;;;;;;;5.07;3.70;;;;;;;12.16;86.87;101193.94;5044171;28;20209;-77
2021/10/27 06:01:55;;;;;;;7.00;4.10;;;;;;;12.16;86.66;101207.03;5043527;28;20199;-80
2021/10/27 06:04:22;;;;;;;6.07;3.63;;;;;;;12.10;87.01;101197.50;5043449;28;20252;-79
2021/10/27 06:06:48;;;;;;;4.77;3.83;;;;;;;12.09;87.41;101179.19;5042495;28;20233;-77
2021/10/27 06:09:15;;;;;;;4.20;3.70;;;;;;;12.11;87.16;101185.31;5043498;28;20217;-78
2021/10/27 06:11:43;;;;;;;5.60;4.20;;;;;;;12.10;87.15;101186.19;5043582;28;20244;-78
2021/10/27 06:14:10;;;;;;;4.97;4.30;;;;;;;12.08;87.70;101178.34;5043196;28;20268;-78
2021/10/27 06:16:38;;;;;;;4.37;3.97;;;;;;;12.13;87.22;101173.06;5042545;28;20209;-77
2021/10/27 06:19:05;;;;;;;4.67;4.27;;;;;;;12.14;87.33;101182.63;5042913;28;20696;-78
2021/10/27 06:21:32;;;;;;;5.87;4.73;;;;;;;12.17;87.43;101185.22;5042942;28;20240;-77
2021/10/27 06:24:00;;;;;;;8.73;4.73;;;;;;;12.08;87.79;101174.88;5043686;28;20267;-77
2021/10/27 06:26:26;;;;;;;4.10;3.70;;;;;;;12.09;88.07;101169.63;5046120;28;20294;-78
2021/10/27 06:29:01;;;;;;;4.30;3.87;;;;;;;12.08;88.25;101167.88;5044095;28;20205;-79
2021/10/27 06:31:33;;;;;;;5.20;4.80;;;;;;;12.02;88.47;101170.56;5042959;28;20212;-79
2021/10/27 06:34:05;;;;;;;4.90;4.43;;;;;;;12.01;89.21;101154.91;5043404;28;20322;-80
2021/10/27 06:36:41;;;;;;;4.73;4.27;;;;;;;12.02;89.63;101156.63;5044177;28;20201;-81
2021/10/27 06:39:27;;;;;;;4.57;4.10;;;;;;;11.89;90.55;101148.06;5043853;28;20211;-79
2021/10/27 06:47:26;;;;;;;6.90;4.07;;;;;;;12.11;90.06;101167.84;5043175;28;20682;-80
2021/10/27 06:49:52;;;;;;;8.20;4.40;;;;;;;12.21;89.37;101188.63;5043087;28;20205;-81
2021/10/27 06:52:19;;;;;;;5.80;4.57;;;;;;;12.25;89.33;101185.97;5044833;28;20211;-79
2021/10/27 06:54:49;;;;;;;4.20;3.80;;;;;;;12.29;89.31;101194.66;5045645;28;20220;-79
2021/10/27 06:57:16;;;;;;;4.10;3.80;;;;;;;12.32;89.16;101187.59;5046065;28;20210;-80
2021/10/27 06:59:44;;;;;;;8.00;3.70;;;;;;;12.29;89.71;101182.44;5043495;28;20214;-79
2021/10/27 07:05:07;;;;;;;3.83;3.43;;;;;;;12.34;89.66;101179.75;5044779;28;20221;-80
2021/10/27 07:15:46;;;;;;;4.60;4.20;;;;;;;12.15;91.65;101134.66;5044964;28;20735;-79
2021/10/27 07:18:13;;;;;;;4.30;3.90;;;;;;;12.19;91.80;101119.75;5044456;28;20205;-78
2021/10/27 07:20:39;;;;;;;4.40;4.10;;;;;;;12.27;91.55;101121.38;5045751;28;20244;-81
2021/10/27 07:23:08;;;;;;;4.37;4.00;;;;;;;12.26;91.47;101124.88;5046820;28;20224;-80
2021/10/27 07:25:35;;;;;;;4.43;4.10;;;;;;;12.31;91.47;101117.84;5045854;28;20238;-80
2021/10/27 07:28:02;;;;;;;4.37;3.97;;;;;;;12.27;92.25;101113.53;5047924;28;20206;-79
2021/10/27 07:30:29;;;;;;;4.63;3.67;;;;;;;12.32;91.79;101111.69;5051745;28;20213;-80
2021/10/27 07:32:57;;;;;;;4.37;3.97;;;;;;;12.35;91.08;101133.47;5052990;28;20233;-80
2021/10/27 07:35:31;;;;;;;4.87;4.47;;;;;;;12.22;91.70;101127.56;5055005;28;20207;-78
2021/10/27 07:40:45;;;;;;;4.63;4.10;;;;;;;12.27;91.94;101118.75;5050766;28;20637;-78
2021/10/27 07:43:15;;;;;;;4.20;3.90;;;;;;;12.24;92.30;101112.72;5046156;28;20723;-77
2021/10/27 07:45:43;;;;;;;5.37;3.90;;;;;;;12.25;91.92;101115.31;5046075;28;20228;-77
2021/10/27 07:48:11;;;;;;;4.00;3.60;;;;;;;12.32;92.09;101123.91;5045152;28;20253;-76
2021/10/27 07:50:38;;;;;;;4.73;3.90;;;;;;;12.42;91.64;101135.97;5047184;28;20210;-76
2021/10/27 07:53:07;;;;;;;4.57;4.17;;;;;;;12.53;91.47;101143.69;5046830;28;20325;-77
2021/10/27 07:55:34;;;;;;;4.23;3.83;;;;;;;12.53;91.10;101159.41;5047057;28;20201;-77
2021/10/27 07:58:02;;;;;;;3.97;3.67;;;;;;;12.63;90.90;101168.84;5046695;28;20217;-76
2021/10/27 08:00:29;;;;;;;5.27;4.60;;;;;;;12.64;90.36;101188.03;5046500;28;20288;-76
2021/10/27 08:03:00;;;;;;;4.57;3.87;;;;;;;12.70;90.44;101191.44;5046029;28;20318;-76
2021/10/27 08:05:29;;;;;;;3.97;3.57;;;;;;;12.80;90.49;101197.38;5047847;28;20319;-79
2021/10/27 08:07:57;;;;;;;5.37;4.03;;;;;;;12.79;90.20;101194.78;5049716;28;20217;-77
2021/10/27 08:10:24;;;;;;;4.27;3.63;;;;;;;12.86;89.87;101210.41;5049969;28;20236;-76
2021/10/27 08:12:51;;;;;;;4.20;3.80;;;;;;;12.84;89.91;101216.53;5050250;28;20266;-79
2021/10/27 08:15:18;;;;;;;4.50;4.00;;;;;;;12.87;89.83;101222.59;5050119;28;20210;-79
2021/10/27 08:17:45;;;;;;;4.30;3.73;;;;;;;12.83;89.29;101243.63;5051070;28;20997;-81
2021/10/27 08:20:13;;;;;;;4.17;3.87;;;;;;;12.91;89.16;101240.00;5049117;28;20257;-81
2021/10/27 08:22:44;;;;;;;4.60;4.20;;;;;;;12.99;88.82;101252.13;5049061;28;20220;-81
2021/10/27 08:25:19;;;;;;;4.43;4.03;;;;;;;13.08;88.87;101246.72;5048931;28;20301;-79
2021/10/27 08:27:45;;;;;;;5.17;3.60;;;;;;;13.17;88.58;101258.81;5048547;28;20209;-81
2021/10/27 08:30:13;;;;;;;4.30;4.00;;;;;;;13.22;88.66;101268.34;5049021;28;20744;-80
2021/10/27 08:32:51;;;;;;;4.10;3.80;;;;;;;13.26;88.69;101275.28;5049442;28;20376;-80
2021/10/27 08:35:18;;;;;;;5.33;4.63;;;;;;;13.34;88.42;101279.53;5049384;28;20198;-81
2021/10/27 08:37:48;;;;;;;5.13;3.87;;;;;;;13.35;88.31;101286.53;5048411;28;20225;-81
2021/10/27 08:40:15;;;;;;;4.03;3.73;;;;;;;13.40;87.44;101292.53;5049368;28;20394;-81
2021/10/27 08:42:43;;;;;;;4.77;4.20;;;;;;;13.38;87.18;101312.69;5056678;28;20218;-78
2021/10/27 08:45:10;;;;;;;4.43;4.00;;;;;;;13.45;86.69;101330.06;5058712;28;20201;-78
2021/10/27 08:47:38;;;;;;;3.97;3.67;;;;;;;13.52;86.63;101336.94;5056964;28;20217;-80
2021/10/27 08:50:06;;;;;;;3.53;3.27;;;;;;;13.54;86.18;101353.53;5058315;28;20202;-80
2021/10/27 08:52:33;;;;;;;4.00;3.80;;;;;;;13.53;85.97;101351.78;5057053;28;20254;-79
2021/10/27 08:55:01;;;;;;;4.57;4.13;;;;;;;13.43;86.30;101356.31;5056170;28;20210;-79
2021/10/27 08:57:27;;;;;;;4.90;3.77;;;;;;;13.51;86.60;101350.94;5047580;28;20256;-79
2021/10/27 08:59:59;;;;;;;4.53;3.97;;;;;;;13.53;85.91;101359.66;5047259;28;20217;-79
2021/10/27 09:05:34;;;;;;;4.27;3.63;;;;;;;13.53;85.11;101390.25;5047743;28;20210;-79
2021/10/27 09:08:30;;;;;;;3.90;3.50;;;;;;;13.61;85.37;101388.38;5046370;28;20241;-80
2021/10/27 09:34:07;;;;;;;3.83;2.70;;;;;;;13.91;81.31;101502.47;5047326;28;20315;-79
2021/10/27 09:36:47;;;;;;;2.83;2.63;;;;;;;13.98;81.84;101508.53;5047142;28;20202;-80
2021/10/27 09:42:13;;;;;;;2.97;2.77;;;;;;;14.12;81.09;101526.69;5040355;28;20380;-80
2021/10/27 09:45:04;;;;;;;2.50;2.30;;;;;;;14.22;80.60;101528.25;5048801;28;20214;-80
2021/10/27 09:47:56;;;;;;;3.70;2.47;;;;;;;14.25;79.86;101557.97;5046715;28;20243;-78
2021/10/27 09:56:31;;;;;;;2.67;2.33;;;;;;;14.32;79.70;101576.25;5048979;28;20264;-80
2021/10/27 10:04:30;;;;;;;3.27;2.17;;;;;;;14.75;79.05;101584.31;5035694;28;20751;-78
2021/10/27 10:06:59;;;;;;;2.07;1.80;;;;;;;14.69;77.08;101634.34;5047646;28;20241;-81
2021/10/27 10:09:27;;;;;;;2.80;2.27;;;;;;;14.83;78.17;101631.47;5048438;28;20528;-81
2021/10/27 10:11:54;;;;;;;3.30;2.27;;;;;;;14.60;76.93;101656.38;5047919;28;20651;-80
2021/10/27 10:14:21;;;;;;;4.37;2.10;;;;;;;14.75;78.48;101617.63;5047198;28;20274;-79
2021/10/27 10:16:52;;;;;;;2.73;2.00;;;;;;;14.69;77.63;101631.72;5048067;28;20212;-80
2021/10/27 10:19:21;;;;;;;2.10;1.90;;;;;;;14.73;77.99;101628.16;5048295;28;20306;-78
2021/10/27 10:21:48;;;;;;;7.50;1.97;;;;;;;14.88;78.31;101604.22;5048492;28;20392;-80
2021/10/27 10:24:32;;;;;;;2.60;2.17;;;;;;;14.76;76.62;101661.38;5049046;28;20276;-80
2021/10/27 10:27:00;;;;;;;2.57;1.77;;;;;;;14.83;78.21;101608.69;5048035;28;20241;-82
2021/10/27 10:29:48;;;;;;;3.70;1.70;;;;;;;14.70;77.46;101641.31;5047585;28;20298;-80
2021/10/27 10:32:39;;;;;;;1.73;1.50;;;;;;;14.74;77.73;101623.75;5046139;28;20642;-80
2021/10/27 10:35:20;;;;;;;2.40;1.83;;;;;;;14.80;77.51;101629.75;5046023;28;20299;-80
2021/10/27 10:37:54;;;;;;;2.27;1.73;;;;;;;14.85;77.35;101634.94;5045856;28;20206;-80
2021/10/27 10:40:48;;;;;;;2.23;1.80;;;;;;;14.78;77.43;101642.06;5047300;28;20229;-79
2021/10/27 10:43:57;;;;;;;2.83;1.87;;;;;;;14.69;77.24;101655.38;5049018;28;20272;-82
2021/10/27 10:59:54;;;;;;;3.53;2.20;;;;;;;14.55;79.09;101589.88;5048586;28;20209;-78
2021/10/27 11:02:53;;;;;;;3.00;2.13;;;;;;;14.63;79.42;101576.63;5050237;28;20671;-77
2021/10/27 11:15:12;;;;;;;2.47;1.70;;;;;;;14.57;79.03;101593.38;5051170;28;20218;-79
2021/10/27 11:23:05;;;;;;;2.23;1.83;;;;;;;14.61;79.20;101571.41;5051491;28;20310;-77
2021/10/27 11:25:45;;;;;;;2.90;1.80;;;;;;;14.63;79.14;101576.63;5052941;28;20716;-77
2021/10/27 11:39:43;;;;;;;3.97;1.60;;;;;;;14.66;78.74;101581.81;5047610;28;20217;-81
2021/10/27 11:42:34;;;;;;;2.37;1.87;;;;;;;14.65;79.09;101582.75;5050719;28;20199;-78
2021/10/27 11:45:16;;;;;;;2.10;1.77;;;;;;;14.64;78.26;101583.63;5051365;28;20206;-80
2021/10/27 11:47:45;;;;;;;2.70;1.90;;;;;;;14.60;77.93;101614.31;5049714;28;20481;-80
2021/10/27 11:50:14;;;;;;;3.50;1.97;;;;;;;14.62;78.64;101595.91;5046940;28;20216;-80
2021/10/27 11:52:42;;;;;;;3.93;2.27;;;;;;;14.70;78.66;101592.25;5045776;28;20830;-81
2021/10/27 11:55:12;;;;;;;3.03;2.03;;;;;;;14.78;78.65;101580.75;5048439;28;20472;-82
2021/10/27 11:57:41;;;;;;;2.30;1.93;;;;;;;14.73;77.71;101607.13;5044635;28;20201;-78
2021/10/27 12:00:10;;;;;;;2.07;1.50;;;;;;;14.65;77.33;101632.66;5046098;28;20238;-79
2021/10/27 12:02:53;;;;;;;3.47;1.60;;;;;;;14.70;77.31;101622.94;5045541;28;20226;-76
2021/10/27 12:05:24;;;;;;;2.27;1.87;;;;;;;14.55;77.02;101633.66;5047869;28;20202;-80
2021/10/27 12:08:15;;;;;;;3.97;1.60;;;;;;;14.69;77.95;101605.44;5049426;28;20263;-79
2021/10/27 12:10:57;;;;;;;2.70;1.87;;;;;;;14.64;77.83;101607.25;5046378;28;20755;-81
2021/10/27 12:13:39;;;;;;;2.77;1.43;;;;;;;14.63;77.52;101600.28;5048793;28;20226;-79
2021/10/27 12:16:27;;;;;;;3.27;1.87;;;;;;;14.67;77.62;101587.06;5049631;28;20305;-80
2021/10/27 12:18:55;;;;;;;1.90;1.80;;;;;;;14.56;77.53;101599.50;5050336;28;20222;-82
2021/10/27 12:21:23;;;;;;;2.53;1.90;;;;;;;14.66;77.67;101592.34;5055388;28;20219;-80
2021/10/27 12:23:51;;;;;;;5.03;1.70;;;;;;;14.78;78.68;101570.22;5055886;28;20227;-81
2021/10/27 12:26:19;;;;;;;2.13;1.87;;;;;;;14.88;77.15;101598.06;5052037;28;20284;-80
2021/10/27 12:28:47;;;;;;;2.40;1.60;;;;;;;14.99;77.24;101595.25;5051407;28;20255;-81
2021/10/27 12:31:15;;;;;;;3.50;1.80;;;;;;;15.03;77.12;101613.56;5054264;28;20205;-80
2021/10/27 12:33:43;;;;;;;3.37;1.90;;;;;;;14.95;75.81;101659.31;5054226;28;20234;-80
2021/10/27 12:36:17;;;;;;;4.47;1.70;;;;;;;15.08;76.89;101621.38;5052646;28;20293;-78
2021/10/27 12:39:07;;;;;;;2.50;2.07;;;;;;;15.05;76.69;101618.81;5050306;28;20210;-78
2021/10/27 12:41:35;;;;;;;3.70;1.83;;;;;;;15.12;77.16;101616.94;5049552;28;20677;-80
2021/10/27 12:44:17;;;;;;;3.00;1.60;;;;;;;15.09;76.68;101620.50;5052427;28;20318;-81
2021/10/27 12:46:44;;;;;;;3.40;1.60;;;;;;;15.13;76.10;101642.34;5053030;28;20226;-79
2021/10/27 12:49:18;;;;;;;3.43;2.30;;;;;;;15.16;76.44;101629.13;5053854;28;20203;-81
2021/10/27 12:51:45;;;;;;;1.97;1.57;;;;;;;15.20;76.07;101630.78;5054600;28;20216;-81
2021/10/27 12:54:11;;;;;;;3.37;1.70;;;;;;;15.34;75.97;101631.41;5052959;28;20252;-80
2021/10/27 12:56:39;;;;;;;2.37;1.83;;;;;;;15.49;75.60;101640.75;5056243;28;20210;-80
2021/10/27 12:59:08;;;;;;;3.70;1.90;;;;;;;15.50;74.48;101674.09;5053182;28;20207;-80
2021/10/27 13:01:39;;;;;;;3.27;2.00;;;;;;;15.54;74.01;101694.19;5056035;28;20755;-81
2021/10/27 13:04:16;;;;;;;2.27;2.03;;;;;;;15.68;74.06;101694.78;5050435;28;20231;-80
2021/10/27 13:06:52;;;;;;;4.63;1.70;;;;;;;15.66;74.68;101693.06;5049398;28;20256;-79
2021/10/27 13:12:39;;;;;;;2.37;1.50;;;;;;;15.80;74.33;101684.94;5053390;28;20226;-78
2021/10/27 13:15:31;;;;;;;3.33;1.67;;;;;;;15.80;73.50;101719.16;5054310;28;20294;-78
2021/10/27 13:21:02;;;;;;;3.90;2.13;;;;;;;15.89;73.70;101704.00;5035885;28;20231;-78
2021/10/27 13:23:55;;;;;;;2.93;2.00;;;;;;;15.80;73.39;101706.84;5053555;28;20229;-81